Airfield :
LOGIN :

Register | Disclaimer

   EN    FR    IT 

 










Legend :    VFR   Marginal VFR   IFR   Intensive IFR   Very Intensive IFR
Visi :
Ceiling :
>= 8 km
>= 3000ft
5 to 8 km
1000 to 3000 ft
1500m to 5 km
500 to 1000 ft
800 to 1500m
200 to 500 ft
< 800m
< 200 ft
Symbols :   Thunderstorms  Fog  Heavy snow  Heavy precipitations  Wind > 20 kt
SIGMETs :     Misc.  Thunderstorms  Icing  Turbulence  Mountain Waves  Volcanic Ashes






- Airport Elevation : 22 ft
- IATA code : FSS


EGQK - RAF Kinloss

CURRENT METAR :
  • 240620Z AUTO 34009KT 9999 OVC025/// 06/M01 Q1021

EXPIRED METARs :
  • 240550Z AUTO 34008KT 9999 FEW024/// BKN035/// 05/00 Q1021
  • 240520Z AUTO 35009KT 9999 FEW029/// OVC038/// 05/M01 Q1022
  • 240450Z AUTO 32009KT 9999 OVC037/// 05/01 Q1022
  • 240420Z AUTO 31008KT 9999 OVC036/// 05/01 Q1022
  • 240350Z AUTO 32010KT 9999 OVC038/// 05/01 Q1022
  • 240320Z AUTO 32010KT 9999 OVC032/// 05/01 Q1022
  • 240250Z AUTO 31009KT 9999 FEW025/// BKN034/// 05/01 Q1023
  • 240220Z AUTO 31010KT 9999 FEW024/// OVC034/// 05/01 Q1023
  • 240120Z AUTO 33007KT 9999 OVC037/// 05/00 Q1023

Expired Forecast.



MET'MAP, your aeronautical weather chart ! - Copyright ORBIFLY December 2007 - Disclaimer

ORBIFLY MET'MAP TEAM :

Programming & Development : Alexandra Zaïnal
Original concept : Baudouin d'Aumeries
Technical & hardware support : Manuel Goepfert
Assistance : Marc-Olivier Méhu




SOURCES & CREDITS :

   NOAA